createdAt,value
2022-08-04T00:00:22.044Z,77.43
2022-08-04T00:01:22.195Z,77.23
2022-08-04T00:02:22.006Z,77.67
2022-08-04T00:03:22.014Z,78.70
2022-08-04T00:04:22.066Z,79.94
2022-08-04T00:05:21.975Z,80.88
2022-08-04T00:06:21.963Z,82.11
2022-08-04T00:07:44.183Z,82.51
2022-08-04T00:08:21.951Z,83.75
2022-08-04T00:09:21.887Z,84.15
2022-08-04T00:10:21.957Z,84.01
2022-08-04T00:11:21.879Z,84.01
2022-08-04T00:12:21.899Z,83.37
2022-08-04T00:13:21.850Z,83.27
2022-08-04T00:14:21.857Z,83.57
2022-08-04T00:15:21.845Z,83.37
2022-08-04T00:16:21.844Z,83.07
2022-08-04T00:17:22.062Z,82.03
2022-08-04T00:18:21.787Z,81.63
2022-08-04T00:19:21.764Z,81.30
2022-08-04T00:20:21.776Z,81.10
2022-08-04T00:21:21.789Z,80.70
2022-08-04T00:22:21.762Z,80.06
2022-08-04T00:23:21.752Z,79.96
2022-08-04T00:24:21.695Z,79.86
2022-08-04T00:25:21.691Z,79.86
2022-08-04T00:26:21.842Z,79.46
2022-08-04T00:27:21.927Z,79.36
2022-08-04T00:28:21.664Z,79.16
2022-08-04T00:29:21.668Z,79.43
2022-08-04T00:30:21.637Z,79.27
2022-08-04T00:31:54.369Z,79.43
2022-08-04T00:32:31.148Z,79.43
2022-08-04T00:33:21.600Z,79.82
2022-08-04T00:34:22.589Z,80.02
2022-08-04T00:35:21.572Z,80.06
2022-08-04T00:36:21.610Z,80.16
2022-08-04T00:37:21.773Z,80.26
2022-08-04T00:38:22.303Z,80.26
2022-08-04T00:39:21.623Z,80.26
2022-08-04T00:40:21.590Z,80.16
2022-08-04T00:41:21.532Z,80.06
2022-08-04T00:42:21.515Z,80.16
2022-08-04T00:43:21.475Z,80.06
2022-08-04T00:44:23.226Z,79.86
2022-08-04T00:45:22.335Z,79.96
2022-08-04T00:46:21.493Z,79.86
2022-08-04T00:47:21.691Z,80.06
2022-08-04T00:48:21.455Z,80.10
2022-08-04T00:49:21.390Z,80.10
2022-08-04T00:50:21.451Z,80.24
2022-08-04T00:51:21.331Z,80.54
2022-08-04T00:52:32.892Z,80.83
2022-08-04T00:53:21.352Z,80.83
2022-08-04T00:54:21.360Z,81.04
2022-08-04T00:55:21.288Z,80.94
2022-08-04T00:56:21.761Z,81.20
2022-08-04T00:57:33.500Z,81.00
2022-08-04T00:58:21.297Z,80.60
2022-08-04T00:59:22.084Z,80.20
2022-08-04T01:00:22.798Z,79.90
2022-08-04T01:01:21.334Z,79.57
2022-08-04T01:02:21.248Z,79.36
2022-08-04T01:03:21.232Z,79.66
2022-08-04T01:04:22.127Z,79.36
2022-08-04T01:05:21.173Z,79.06
2022-08-04T01:06:21.146Z,78.77
2022-08-04T01:07:21.411Z,78.77
2022-08-04T01:08:21.178Z,78.77
2022-08-04T01:09:21.764Z,78.67
2022-08-04T01:10:21.105Z,78.27
2022-08-04T01:11:21.141Z,78.77
2022-08-04T01:12:21.089Z,78.97
2022-08-04T01:13:21.133Z,78.47
2022-08-04T01:14:21.069Z,78.47
2022-08-04T01:15:21.050Z,78.47
2022-08-04T01:16:21.022Z,78.67
2022-08-04T01:17:21.334Z,78.70
2022-08-04T01:18:21.052Z,78.30
2022-08-04T01:19:21.740Z,78.20
2022-08-04T01:20:20.975Z,78.41
2022-08-04T01:21:20.963Z,78.50
2022-08-04T01:22:20.932Z,78.70
2022-08-04T01:23:20.999Z,78.70
2022-08-04T01:24:20.964Z,78.70
2022-08-04T01:25:23.365Z,78.60
2022-08-04T01:26:43.571Z,78.30
2022-08-04T01:27:21.151Z,78.41
2022-08-04T01:28:20.849Z,78.60
2022-08-04T01:29:20.894Z,78.70
2022-08-04T01:30:20.896Z,79.00
2022-08-04T01:31:21.249Z,79.10
2022-08-04T01:32:21.060Z,79.44
2022-08-04T01:33:20.865Z,79.64
2022-08-04T01:34:20.801Z,79.74
2022-08-04T01:35:46.670Z,79.84
2022-08-04T01:36:21.267Z,79.54
2022-08-04T01:37:20.968Z,79.58
2022-08-04T01:38:21.764Z,79.88
2022-08-04T01:39:20.820Z,80.21
2022-08-04T01:40:20.748Z,80.32
2022-08-04T01:41:32.608Z,80.41
2022-08-04T01:42:31.166Z,80.85
2022-08-04T01:43:21.221Z,80.95
2022-08-04T01:44:20.679Z,81.25
2022-08-04T01:45:20.683Z,81.41
2022-08-04T01:46:20.670Z,81.51
2022-08-04T01:47:20.798Z,81.41
2022-08-04T01:48:20.591Z,81.21
2022-08-04T01:49:20.612Z,80.62
2022-08-04T01:50:20.585Z,80.51
2022-08-04T01:51:20.588Z,80.62
2022-08-04T01:52:20.578Z,80.41
2022-08-04T01:53:20.525Z,80.32
2022-08-04T01:54:21.301Z,80.38
2022-08-04T01:55:20.502Z,79.82
2022-08-04T01:56:20.520Z,79.91
2022-08-04T01:57:38.400Z,79.82
2022-08-04T01:58:20.511Z,79.91
2022-08-04T01:59:20.451Z,80.41
2022-08-04T02:00:20.454Z,80.41
2022-08-04T02:01:20.521Z,80.62
2022-08-04T02:02:20.666Z,80.82
2022-08-04T02:03:20.401Z,80.58
2022-08-04T02:04:23.509Z,80.58
2022-08-04T02:05:20.448Z,80.47
2022-08-04T02:06:20.401Z,80.47
2022-08-04T02:07:20.650Z,80.47
2022-08-04T02:08:21.063Z,80.38
2022-08-04T02:09:20.336Z,80.38
2022-08-04T02:10:20.316Z,80.38
2022-08-04T02:11:20.336Z,80.38
2022-08-04T02:12:20.316Z,80.27
2022-08-04T02:13:20.341Z,80.08
2022-08-04T02:14:20.264Z,79.97
2022-08-04T02:15:20.274Z,80.08
2022-08-04T02:16:20.284Z,80.04
2022-08-04T02:17:20.925Z,80.04
2022-08-04T02:18:20.206Z,79.94
2022-08-04T02:19:20.198Z,80.18
2022-08-04T02:20:20.239Z,80.47
2022-08-04T02:21:20.207Z,80.58
2022-08-04T02:22:20.159Z,80.68
2022-08-04T02:23:20.142Z,80.91
2022-08-04T02:24:20.150Z,81.21
2022-08-04T02:25:20.207Z,81.31
2022-08-04T02:26:22.637Z,81.61
2022-08-04T02:27:20.271Z,81.71
2022-08-04T02:28:20.084Z,81.81
2022-08-04T02:29:20.048Z,81.92
2022-08-04T02:30:20.059Z,82.05
2022-08-04T02:31:20.066Z,82.05
2022-08-04T02:32:20.040Z,82.25
2022-08-04T02:33:20.033Z,82.35
2022-08-04T02:34:20.008Z,82.45
2022-08-04T02:35:20.022Z,82.45
2022-08-04T02:36:20.023Z,82.55
2022-08-04T02:37:20.176Z,82.65
2022-08-04T02:38:25.554Z,82.65
2022-08-04T02:39:20.025Z,82.75
2022-08-04T02:40:19.931Z,82.55
2022-08-04T02:41:20.072Z,82.35
2022-08-04T02:42:19.913Z,82.01
2022-08-04T02:43:19.870Z,81.71
2022-08-04T02:44:19.911Z,81.81
2022-08-04T02:45:19.850Z,81.81
2022-08-04T02:46:19.874Z,81.61
2022-08-04T02:47:20.124Z,81.61
2022-08-04T02:48:30.914Z,81.51
2022-08-04T02:49:20.577Z,81.61
2022-08-04T02:50:28.640Z,81.81
2022-08-04T02:51:19.805Z,81.95
2022-08-04T02:52:19.774Z,82.25
2022-08-04T02:53:19.754Z,82.55
2022-08-04T02:54:31.734Z,82.75
2022-08-04T02:55:19.789Z,82.89
2022-08-04T02:56:19.819Z,82.99
2022-08-04T02:57:20.020Z,83.09
2022-08-04T02:58:19.691Z,82.99
2022-08-04T02:59:19.688Z,82.89
2022-08-04T03:00:19.722Z,82.75
2022-08-04T03:01:19.721Z,82.75
2022-08-04T03:02:19.657Z,82.65
2022-08-04T03:03:19.772Z,82.65
2022-08-04T03:04:24.456Z,82.75
2022-08-04T03:05:19.593Z,82.55
2022-08-04T03:06:19.600Z,82.25
2022-08-04T03:07:19.839Z,82.25
2022-08-04T03:08:19.552Z,82.35
2022-08-04T03:09:19.558Z,82.35
2022-08-04T03:10:19.572Z,82.25
2022-08-04T03:11:19.548Z,82.25
2022-08-04T03:12:19.544Z,82.05
2022-08-04T03:13:19.505Z,82.05
2022-08-04T03:14:20.084Z,82.05
2022-08-04T03:15:19.745Z,81.75
2022-08-04T03:16:19.489Z,81.95
2022-08-04T03:17:19.755Z,81.15
2022-08-04T03:18:19.462Z,80.55
2022-08-04T03:19:19.444Z,80.65
2022-08-04T03:20:19.398Z,80.85
2022-08-04T03:21:19.417Z,80.95
2022-08-04T03:22:19.421Z,80.76
2022-08-04T03:23:19.379Z,80.62
2022-08-04T03:24:20.303Z,80.51
2022-08-04T03:25:19.444Z,79.75
2022-08-04T03:26:19.365Z,79.46
2022-08-04T03:27:19.510Z,79.89
2022-08-04T03:28:19.325Z,80.53
2022-08-04T03:29:35.897Z,81.03
2022-08-04T03:30:19.331Z,81.57
2022-08-04T03:31:19.281Z,81.97
2022-08-04T03:32:19.271Z,82.13
2022-08-04T03:33:19.284Z,82.33
2022-08-04T03:34:19.246Z,82.43
2022-08-04T03:35:22.833Z,81.73
2022-08-04T03:36:19.250Z,81.37
2022-08-04T03:37:19.354Z,81.57
2022-08-04T03:38:19.182Z,81.87
2022-08-04T03:39:19.346Z,81.91
2022-08-04T03:40:19.144Z,82.41
2022-08-04T03:41:51.586Z,82.41
2022-08-04T03:42:19.145Z,82.71
2022-08-04T03:43:58.045Z,82.91
2022-08-04T03:44:19.114Z,82.85
2022-08-04T03:45:23.922Z,82.75
2022-08-04T03:46:19.100Z,83.19
2022-08-04T03:47:19.528Z,83.69
2022-08-04T03:48:19.052Z,84.13
2022-08-04T03:49:19.057Z,84.77
2022-08-04T03:50:19.030Z,85.68
2022-08-04T03:51:36.000Z,86.38
2022-08-04T03:52:19.001Z,87.12
2022-08-04T03:53:18.995Z,87.73
2022-08-04T03:54:19.722Z,88.12
2022-08-04T03:55:19.067Z,88.53
2022-08-04T03:56:18.944Z,88.63
2022-08-04T03:57:19.146Z,88.73
2022-08-04T03:58:18.967Z,88.63
2022-08-04T03:59:18.908Z,88.39
2022-08-04T04:00:18.917Z,87.98
2022-08-04T04:01:18.902Z,87.54
2022-08-04T04:02:18.879Z,87.14
2022-08-04T04:03:28.792Z,86.50
2022-08-04T04:04:18.839Z,85.99
2022-08-04T04:05:18.834Z,85.49
2022-08-04T04:06:18.873Z,84.95
2022-08-04T04:07:19.617Z,84.55
2022-08-04T04:08:19.425Z,83.95
2022-08-04T04:09:20.706Z,83.85
2022-08-04T04:10:19.171Z,83.95
2022-08-04T04:11:18.758Z,84.19
2022-08-04T04:12:18.748Z,84.39
2022-08-04T04:13:18.742Z,84.83
2022-08-04T04:14:19.700Z,85.47
2022-08-04T04:15:18.729Z,85.97
2022-08-04T04:16:18.693Z,86.48
2022-08-04T04:17:18.932Z,86.88
2022-08-04T04:18:18.661Z,87.22
2022-08-04T04:19:18.694Z,87.42
2022-08-04T04:20:18.623Z,87.32
2022-08-04T04:21:18.677Z,87.32
2022-08-04T04:22:18.645Z,87.02
2022-08-04T04:23:18.616Z,86.82
2022-08-04T04:24:18.588Z,87.12
2022-08-04T04:25:18.573Z,87.42
2022-08-04T04:26:18.568Z,87.46
2022-08-04T04:27:18.785Z,87.46
2022-08-04T04:28:44.712Z,87.57
2022-08-04T04:29:19.286Z,88.11
2022-08-04T04:30:18.533Z,88.41
2022-08-04T04:31:18.515Z,88.47
2022-08-04T04:32:18.499Z,88.67
2022-08-04T04:33:18.450Z,88.87
2022-08-04T04:34:18.448Z,88.87
2022-08-04T04:35:18.477Z,88.87
2022-08-04T04:36:18.745Z,88.97
2022-08-04T04:37:18.663Z,89.17
2022-08-04T04:38:18.387Z,89.43
2022-08-04T04:39:18.444Z,89.53
2022-08-04T04:40:18.410Z,89.53
2022-08-04T04:41:18.382Z,89.53
2022-08-04T04:42:18.390Z,89.73
2022-08-04T04:43:18.318Z,89.63
2022-08-04T04:44:18.383Z,89.49
2022-08-04T04:45:18.300Z,89.59
2022-08-04T04:46:19.102Z,89.39
2022-08-04T04:47:18.292Z,89.29
2022-08-04T04:48:18.321Z,89.09
2022-08-04T04:49:18.247Z,88.75
2022-08-04T04:50:18.237Z,88.44
2022-08-04T04:51:18.254Z,87.80
2022-08-04T04:52:18.211Z,87.40
2022-08-04T04:53:18.213Z,87.10
2022-08-04T04:54:18.169Z,87.00
2022-08-04T04:55:18.177Z,86.90
2022-08-04T04:56:18.178Z,86.76
2022-08-04T04:57:18.180Z,86.55
2022-08-04T04:58:18.140Z,86.16
2022-08-04T04:59:18.143Z,85.71
2022-08-04T05:00:18.215Z,85.31
2022-08-04T05:01:18.115Z,85.01
2022-08-04T05:02:18.109Z,84.71
2022-08-04T05:03:18.084Z,84.71
2022-08-04T05:04:18.061Z,84.71
2022-08-04T05:05:18.047Z,84.57
2022-08-04T05:06:18.026Z,84.57
2022-08-04T05:07:18.047Z,84.77
2022-08-04T05:08:45.317Z,84.97
2022-08-04T05:09:18.095Z,85.07
2022-08-04T05:10:17.994Z,85.07
2022-08-04T05:11:17.968Z,85.13
2022-08-04T05:14:32.474Z,85.13
2022-08-04T05:14:43.729Z,85.03
2022-08-04T05:14:50.603Z,84.73
2022-08-04T05:15:48.593Z,84.49
2022-08-04T05:16:48.584Z,84.39
2022-08-04T05:17:48.545Z,84.19
2022-08-04T05:18:48.598Z,84.29
2022-08-04T05:19:48.567Z,84.19
2022-08-04T05:20:48.510Z,83.99
2022-08-04T05:21:48.529Z,83.79
2022-08-04T05:22:48.480Z,83.79
2022-08-04T05:23:48.508Z,83.89
2022-08-04T05:24:48.474Z,84.09
2022-08-04T05:25:58.624Z,84.15
2022-08-04T05:26:48.445Z,84.15
2022-08-04T05:27:48.453Z,84.15
2022-08-04T05:28:48.416Z,83.95
2022-08-04T05:29:48.406Z,83.61
2022-08-04T05:30:48.501Z,83.61
2022-08-04T05:31:49.225Z,83.41
2022-08-04T05:32:48.433Z,83.11
2022-08-04T05:33:48.392Z,82.91
2022-08-04T05:34:48.358Z,82.81
2022-08-04T05:36:17.160Z,82.51
2022-08-04T05:36:48.457Z,82.41
2022-08-04T05:37:48.300Z,82.51
2022-08-04T05:38:48.313Z,82.61
2022-08-04T05:39:48.304Z,82.71
2022-08-04T05:40:48.309Z,82.81
2022-08-04T05:41:55.797Z,82.91
2022-08-04T05:42:48.256Z,83.11
2022-08-04T05:43:48.241Z,83.11
2022-08-04T05:44:51.098Z,83.01
2022-08-04T05:45:48.218Z,83.01
2022-08-04T05:46:54.142Z,83.21
2022-08-04T05:47:48.170Z,83.11
2022-08-04T05:48:48.169Z,82.97
2022-08-04T05:50:01.193Z,82.87
2022-08-04T05:50:48.124Z,82.87
2022-08-04T05:51:48.189Z,82.97
2022-08-04T05:52:48.117Z,82.77
2022-08-04T05:53:48.100Z,82.67
2022-08-04T05:54:48.104Z,82.57
2022-08-04T05:55:58.659Z,82.37
2022-08-04T05:56:48.051Z,82.37
2022-08-04T05:57:49.294Z,82.28
2022-08-04T05:58:48.042Z,82.17
2022-08-04T05:59:48.053Z,81.67
2022-08-04T06:00:51.526Z,80.88
2022-08-04T06:01:55.453Z,80.64
2022-08-04T06:02:48.005Z,81.04
2022-08-04T06:03:47.951Z,80.83
2022-08-04T06:04:47.948Z,80.54
2022-08-04T06:05:47.930Z,79.94
2022-08-04T06:06:47.931Z,79.64
2022-08-04T06:08:12.225Z,79.44
2022-08-04T06:08:47.915Z,79.34
2022-08-04T06:09:47.905Z,79.34
2022-08-04T06:10:47.877Z,79.44
2022-08-04T06:12:00.177Z,79.14
2022-08-04T06:12:47.923Z,79.20
2022-08-04T06:13:50.878Z,79.20
2022-08-04T06:14:47.825Z,78.60
2022-08-04T06:15:48.805Z,77.51
2022-08-04T06:16:51.509Z,77.31
2022-08-04T06:18:35.376Z,76.81
2022-08-04T06:20:19.431Z,76.71
2022-08-04T06:20:27.860Z,75.97
2022-08-04T06:21:16.048Z,75.67
2022-08-04T06:22:15.741Z,75.48
2022-08-04T06:23:15.722Z,74.68
2022-08-04T06:24:15.708Z,73.78
2022-08-04T06:25:15.737Z,73.14
2022-08-04T06:26:15.774Z,72.95
2022-08-04T06:27:15.709Z,72.75
2022-08-04T06:28:15.649Z,72.55
2022-08-04T06:29:15.668Z,72.75
2022-08-04T06:30:15.644Z,72.95
2022-08-04T06:32:28.672Z,72.52
2022-08-04T06:32:41.845Z,72.81
2022-08-04T06:33:15.604Z,72.71
2022-08-04T06:34:15.580Z,72.81
2022-08-04T06:35:15.617Z,72.91
2022-08-04T06:36:15.546Z,72.52
2022-08-04T06:37:41.000Z,71.48
2022-08-04T06:38:15.530Z,70.19
2022-08-04T06:39:15.615Z,69.99
2022-08-04T06:40:31.373Z,69.20
2022-08-04T06:41:15.532Z,68.96
2022-08-04T06:42:22.429Z,69.06
2022-08-04T06:43:15.489Z,68.46
2022-08-04T06:44:15.448Z,68.56
2022-08-04T06:45:15.735Z,68.56
2022-08-04T06:46:15.469Z,67.93
2022-08-04T06:47:15.432Z,67.83
2022-08-04T06:48:15.417Z,67.14
2022-08-04T06:49:15.407Z,67.54
2022-08-04T06:51:30.201Z,67.83
2022-08-04T06:51:47.142Z,67.83
2022-08-04T06:52:15.488Z,67.33
2022-08-04T06:53:15.339Z,66.61
2022-08-04T06:54:15.314Z,66.31
2022-08-04T06:55:15.295Z,66.31
2022-08-04T06:56:15.342Z,66.31
2022-08-04T06:57:15.332Z,65.72
2022-08-04T06:58:15.286Z,66.18
2022-08-04T06:59:15.262Z,65.58
2022-08-04T07:00:15.239Z,64.98
2022-08-04T07:01:15.310Z,64.89
2022-08-04T07:02:15.245Z,64.56
2022-08-04T07:03:15.266Z,64.36
2022-08-04T07:04:15.198Z,64.56
2022-08-04T07:05:15.161Z,63.96
2022-08-04T07:06:15.238Z,63.34
2022-08-04T07:07:15.166Z,63.24
2022-08-04T07:08:15.166Z,62.54
2022-08-04T07:09:15.111Z,62.94
2022-08-04T07:10:21.631Z,61.82
2022-08-04T07:11:15.091Z,61.82
2022-08-04T07:12:15.061Z,61.82
2022-08-04T07:13:15.064Z,61.72
2022-08-04T07:14:15.081Z,61.12
2022-08-04T07:15:15.041Z,61.29
2022-08-04T07:16:15.010Z,61.69
2022-08-04T07:17:15.082Z,60.89
2022-08-04T07:18:15.049Z,60.60
2022-08-04T07:19:18.892Z,60.60
2022-08-04T07:20:14.977Z,60.27
2022-08-04T07:21:14.963Z,60.37
2022-08-04T07:22:24.871Z,60.37
2022-08-04T07:23:14.949Z,59.48
2022-08-04T07:24:14.921Z,59.75
2022-08-04T07:25:14.981Z,60.34
2022-08-04T07:26:14.999Z,58.95
2022-08-04T07:27:14.911Z,58.36
2022-08-04T07:28:14.937Z,58.16
2022-08-04T07:29:14.963Z,58.26
2022-08-04T07:30:14.864Z,58.65
2022-08-04T07:31:32.439Z,59.25
2022-08-04T07:32:15.724Z,58.65
2022-08-04T07:33:14.871Z,58.53
2022-08-04T07:34:20.678Z,58.53
2022-08-04T07:36:09.177Z,57.74
2022-08-04T07:36:16.064Z,57.74
2022-08-04T07:37:14.737Z,58.73
2022-08-04T07:38:14.749Z,58.43
2022-08-04T07:39:22.053Z,58.60
2022-08-04T07:40:14.733Z,58.70
2022-08-04T07:42:14.702Z,58.20
2022-08-04T07:43:14.731Z,57.48
2022-08-04T07:44:14.710Z,58.07
2022-08-04T07:45:14.776Z,57.39
2022-08-04T07:46:14.657Z,57.65
2022-08-04T07:47:14.675Z,58.15
2022-08-04T07:48:14.638Z,56.46
2022-08-04T07:49:57.302Z,57.23
2022-08-04T07:50:14.617Z,56.04
2022-08-04T07:51:14.583Z,56.24
2022-08-04T07:52:14.585Z,56.51
2022-08-04T07:53:55.075Z,55.82
2022-08-04T07:54:14.588Z,55.30
2022-08-04T07:55:14.560Z,54.80
2022-08-04T07:56:14.522Z,54.38
2022-08-04T07:57:19.381Z,54.88
2022-08-04T07:58:14.518Z,54.36
2022-08-04T07:59:14.518Z,53.37
2022-08-04T08:00:14.486Z,52.98
2022-08-04T08:01:14.470Z,52.66
2022-08-04T08:02:14.526Z,53.15
2022-08-04T08:03:14.458Z,52.36
2022-08-04T08:04:14.461Z,53.34
2022-08-04T08:05:14.404Z,53.22
2022-08-04T08:06:21.066Z,52.83
2022-08-04T08:07:14.410Z,52.14
2022-08-04T08:08:14.397Z,53.52
2022-08-04T08:09:14.879Z,53.32
2022-08-04T08:10:14.329Z,52.90
2022-08-04T08:11:14.345Z,51.81
2022-08-04T08:12:36.715Z,52.50
2022-08-04T08:13:14.338Z,51.62
2022-08-04T08:14:14.321Z,51.81
2022-08-04T08:15:15.926Z,51.52
2022-08-04T08:16:14.271Z,51.79
2022-08-04T08:17:15.151Z,51.30
2022-08-04T08:18:14.263Z,51.30
2022-08-04T08:19:14.286Z,50.98
2022-08-04T08:20:14.281Z,51.15
2022-08-04T08:21:14.214Z,50.56
2022-08-04T08:22:14.211Z,50.04
2022-08-04T08:23:14.175Z,50.83
2022-08-04T08:24:14.171Z,50.54
2022-08-04T08:25:14.168Z,50.71
2022-08-04T08:26:14.158Z,49.41
2022-08-04T08:27:14.116Z,49.01
2022-08-04T08:28:14.097Z,48.99
2022-08-04T08:29:14.087Z,47.32
2022-08-04T08:30:14.441Z,47.13
2022-08-04T08:31:14.072Z,47.22
2022-08-04T08:32:14.085Z,48.11
2022-08-04T08:33:14.029Z,47.81
2022-08-04T08:34:14.260Z,47.39
2022-08-04T08:35:14.050Z,47.49
2022-08-04T08:36:14.022Z,47.30
2022-08-04T08:37:14.142Z,47.49
2022-08-04T08:38:14.003Z,47.49
2022-08-04T08:39:14.054Z,47.59
2022-08-04T08:40:14.029Z,47.77
2022-08-04T08:41:13.940Z,47.27
2022-08-04T08:42:13.960Z,47.17
2022-08-04T08:43:59.988Z,47.57
2022-08-04T08:44:19.312Z,47.37
2022-08-04T08:45:17.645Z,47.27
2022-08-04T08:46:13.894Z,46.78
2022-08-04T08:47:13.877Z,47.25
2022-08-04T08:48:13.837Z,47.25
2022-08-04T08:49:13.851Z,46.98
2022-08-04T08:50:13.915Z,47.67
2022-08-04T08:51:13.831Z,46.86
2022-08-04T08:52:13.798Z,46.74
2022-08-04T08:53:13.835Z,46.15
2022-08-04T08:54:14.601Z,46.64
2022-08-04T08:55:14.316Z,46.94
2022-08-04T08:56:13.776Z,47.03
2022-08-04T08:57:13.850Z,46.50
2022-08-04T08:58:13.736Z,45.59
2022-08-04T08:59:15.457Z,44.20
2022-08-04T09:00:13.693Z,43.32
2022-08-04T09:01:13.798Z,42.74
2022-08-04T09:02:13.693Z,42.93
2022-08-04T09:03:13.651Z,43.32
2022-08-04T09:04:22.973Z,43.59
2022-08-04T09:05:13.653Z,42.60
2022-08-04T09:06:13.618Z,42.29
2022-08-04T09:07:13.650Z,41.41
2022-08-04T09:08:13.622Z,41.77
2022-08-04T09:09:13.633Z,42.07
2022-08-04T09:10:13.592Z,40.50
2022-08-04T09:11:13.700Z,40.89
2022-08-04T09:12:13.571Z,41.97
2022-08-04T09:13:13.523Z,40.41
2022-08-04T09:14:13.602Z,41.09
2022-08-04T09:15:13.547Z,41.19
2022-08-04T09:16:13.512Z,41.17
2022-08-04T09:17:13.529Z,40.88
2022-08-04T09:18:13.460Z,40.78
2022-08-04T09:19:37.426Z,40.39
2022-08-04T09:20:13.507Z,41.09
2022-08-04T09:21:13.496Z,41.41
2022-08-04T09:22:13.431Z,41.91
2022-08-04T09:23:13.396Z,42.30
2022-08-04T09:24:35.066Z,42.50
2022-08-04T09:25:13.499Z,42.40
2022-08-04T09:26:13.405Z,41.70
2022-08-04T09:27:13.415Z,40.50
2022-08-04T09:28:13.378Z,41.07
2022-08-04T09:29:13.340Z,40.97
2022-08-04T09:30:13.324Z,40.66
2022-08-04T09:31:13.349Z,41.05
2022-08-04T09:32:13.354Z,39.47
2022-08-04T09:33:13.313Z,39.55
2022-08-04T09:34:13.275Z,39.84
2022-08-04T09:35:15.578Z,39.84
2022-08-04T09:36:13.282Z,39.75
2022-08-04T09:37:13.437Z,40.70
2022-08-04T09:38:13.252Z,41.40
2022-08-04T09:39:13.362Z,39.47
2022-08-04T09:40:14.601Z,39.18
2022-08-04T09:41:30.029Z,39.18
2022-08-04T09:42:14.576Z,39.47
2022-08-04T09:43:13.196Z,40.25
2022-08-04T09:44:49.207Z,39.94
2022-08-04T09:45:20.429Z,40.13
2022-08-04T09:46:13.143Z,39.86
2022-08-04T09:47:13.133Z,41.25
2022-08-04T09:48:13.098Z,40.47
2022-08-04T09:49:13.103Z,41.03
2022-08-04T09:50:13.305Z,40.33
2022-08-04T09:51:13.098Z,39.84
2022-08-04T09:52:13.118Z,40.72
2022-08-04T09:53:13.060Z,39.72
2022-08-04T09:54:30.496Z,39.62
2022-08-04T09:55:13.611Z,40.11
2022-08-04T09:56:13.056Z,39.24
2022-08-04T09:57:13.022Z,40.13
2022-08-04T09:58:12.997Z,39.94
2022-08-04T09:59:14.131Z,39.84
2022-08-04T10:00:12.956Z,40.23
2022-08-04T10:01:12.979Z,39.65
2022-08-04T10:02:12.950Z,39.53
2022-08-04T10:03:19.254Z,39.82
2022-08-04T10:04:12.931Z,38.44
2022-08-04T10:05:12.907Z,38.91
2022-08-04T10:06:12.922Z,38.70
2022-08-04T10:07:12.896Z,38.01
2022-08-04T10:08:16.110Z,38.01
2022-08-04T10:09:12.846Z,37.04
2022-08-04T10:10:12.836Z,38.21
2022-08-04T10:11:12.847Z,37.52
2022-08-04T10:12:12.831Z,36.93
2022-08-04T10:13:12.791Z,36.85
2022-08-04T10:14:12.804Z,36.93
2022-08-04T10:15:12.823Z,35.47
2022-08-04T10:16:12.783Z,36.07
2022-08-04T10:17:12.734Z,37.06
2022-08-04T10:18:12.748Z,36.00
2022-08-04T10:19:12.716Z,37.37
2022-08-04T10:20:12.715Z,36.32
2022-08-04T10:21:15.647Z,36.41
2022-08-04T10:22:29.281Z,36.71
2022-08-04T10:23:12.698Z,36.53
2022-08-04T10:24:12.692Z,35.73
2022-08-04T10:26:05.052Z,34.95
2022-08-04T10:26:12.643Z,35.91
2022-08-04T10:27:12.611Z,35.41
2022-08-04T10:28:12.600Z,35.21
2022-08-04T10:29:12.624Z,34.33
2022-08-04T10:30:12.610Z,34.72
2022-08-04T10:31:12.576Z,34.94
2022-08-04T10:32:12.546Z,35.03
2022-08-04T10:33:12.539Z,35.52
2022-08-04T10:34:12.545Z,35.52
2022-08-04T10:35:12.534Z,35.21
2022-08-04T10:36:12.526Z,34.24
2022-08-04T10:37:12.498Z,33.26
2022-08-04T10:38:12.493Z,34.53
2022-08-04T10:39:41.752Z,34.94
2022-08-04T10:40:12.550Z,36.00
2022-08-04T10:41:12.464Z,36.12
2022-08-04T10:42:12.426Z,35.75
2022-08-04T10:43:22.566Z,36.43
2022-08-04T10:44:12.421Z,37.02
2022-08-04T10:45:12.425Z,36.51
2022-08-04T10:46:12.412Z,37.00
2022-08-04T10:47:12.393Z,36.51
2022-08-04T10:48:12.392Z,36.41
2022-08-04T10:49:12.366Z,35.63
2022-08-04T10:50:12.404Z,35.81
2022-08-04T10:51:12.331Z,35.61
2022-08-04T10:52:12.300Z,35.81
2022-08-04T10:53:12.374Z,35.11
2022-08-04T10:54:12.275Z,35.41
2022-08-04T10:55:12.278Z,34.14
2022-08-04T10:56:12.283Z,34.72
2022-08-04T10:57:12.267Z,34.72
2022-08-04T10:58:12.234Z,35.31
2022-08-04T10:59:12.217Z,34.82
2022-08-04T11:00:12.285Z,35.80
2022-08-04T11:01:12.179Z,35.41
2022-08-04T11:02:16.303Z,35.11
2022-08-04T11:03:12.273Z,35.21
2022-08-04T11:04:12.162Z,35.31
2022-08-04T11:05:12.150Z,35.21
2022-08-04T11:06:12.155Z,36.08
2022-08-04T11:07:12.133Z,36.57
2022-08-04T11:08:15.328Z,35.39
2022-08-04T11:09:15.006Z,36.46
2022-08-04T11:10:12.208Z,35.97
2022-08-04T11:11:12.148Z,35.29
2022-08-04T11:12:12.059Z,34.70
2022-08-04T11:13:21.728Z,35.88
2022-08-04T11:14:12.047Z,35.80
2022-08-04T11:15:12.064Z,35.99
2022-08-04T11:16:12.006Z,36.57
2022-08-04T11:17:12.000Z,36.75
2022-08-04T11:18:16.271Z,36.46
2022-08-04T11:19:12.010Z,37.04
2022-08-04T11:20:34.080Z,37.14
2022-08-04T11:21:11.999Z,37.14
2022-08-04T11:22:11.941Z,35.88
2022-08-04T11:23:11.934Z,36.26
2022-08-04T11:24:11.914Z,36.36
2022-08-04T11:25:11.934Z,36.83
2022-08-04T11:26:11.934Z,36.24
2022-08-04T11:27:12.110Z,35.47
2022-08-04T11:28:11.875Z,35.08
2022-08-04T11:29:11.857Z,35.76
2022-08-04T11:30:13.452Z,35.94
2022-08-04T11:31:11.852Z,36.52
2022-08-04T11:32:11.815Z,36.42
2022-08-04T11:33:11.790Z,36.81
2022-08-04T11:34:11.802Z,35.74
2022-08-04T11:35:11.767Z,37.12
2022-08-04T11:36:11.797Z,35.76
2022-08-04T11:37:23.169Z,36.63
2022-08-04T11:38:11.744Z,36.44
2022-08-04T11:39:11.805Z,36.83
2022-08-04T11:40:11.753Z,36.83
2022-08-04T11:41:11.724Z,36.15
2022-08-04T11:42:11.691Z,36.05
2022-08-04T11:43:11.685Z,35.86
2022-08-04T11:44:12.824Z,33.31
2022-08-04T11:45:11.721Z,32.54
2022-08-04T11:46:11.702Z,32.82
2022-08-04T11:47:11.643Z,33.91
2022-08-04T11:48:11.630Z,32.84
2022-08-04T11:49:11.649Z,34.40
2022-08-04T11:50:11.622Z,33.43
2022-08-04T11:51:11.608Z,33.62
2022-08-04T11:52:11.575Z,34.52
2022-08-04T11:53:11.557Z,35.39
2022-08-04T11:54:11.550Z,35.39
2022-08-04T11:55:11.553Z,35.10
2022-08-04T11:56:11.617Z,35.17
2022-08-04T11:57:11.535Z,32.75
2022-08-04T11:58:11.504Z,34.69
2022-08-04T11:59:11.493Z,34.19
2022-08-04T12:00:11.602Z,34.58
2022-08-04T12:01:11.514Z,33.69
2022-08-04T12:02:11.552Z,35.05
2022-08-04T12:03:11.462Z,33.01
2022-08-04T12:04:11.424Z,33.78
2022-08-04T12:05:35.276Z,33.01
2022-08-04T12:06:11.551Z,32.50
2022-08-04T12:08:11.420Z,33.49
2022-08-04T12:09:11.397Z,34.08
2022-08-04T12:10:11.363Z,34.40
2022-08-04T12:11:11.382Z,33.53
2022-08-04T12:12:11.322Z,34.32
2022-08-04T12:13:11.319Z,34.61
2022-08-04T12:14:11.310Z,34.72
2022-08-04T12:15:11.300Z,34.05
2022-08-04T12:16:11.327Z,34.22
2022-08-04T12:17:11.309Z,35.88
2022-08-04T12:18:11.270Z,33.91
2022-08-04T12:19:15.419Z,32.84
2022-08-04T12:20:31.835Z,33.12
2022-08-04T12:21:11.274Z,32.64
2022-08-04T12:22:11.252Z,31.55
2022-08-04T12:23:11.214Z,31.74
2022-08-04T12:24:11.181Z,32.52
2022-08-04T12:25:11.241Z,32.42
2022-08-04T12:26:11.197Z,32.32
2022-08-04T12:27:11.137Z,34.28
2022-08-04T12:28:11.160Z,32.81
2022-08-04T12:29:11.750Z,33.12
2022-08-04T12:31:00.600Z,33.70
2022-08-04T12:31:11.781Z,33.20
2022-08-04T12:32:11.148Z,32.62
2022-08-04T12:33:11.092Z,31.07
2022-08-04T12:34:11.062Z,31.05
2022-08-04T12:35:11.116Z,31.05
2022-08-04T12:36:11.914Z,31.63
2022-08-04T12:37:11.067Z,30.35
2022-08-04T12:38:11.029Z,29.68
2022-08-04T12:39:11.128Z,29.77
2022-08-04T12:40:28.562Z,29.68
2022-08-04T12:41:11.033Z,30.07
2022-08-04T12:42:10.981Z,29.68
2022-08-04T12:43:10.975Z,30.82
2022-08-04T12:44:37.803Z,30.05
2022-08-04T12:45:10.976Z,30.63
2022-08-04T12:46:10.995Z,28.89
2022-08-04T12:47:27.259Z,29.47
2022-08-04T12:48:10.900Z,28.40
2022-08-04T12:49:10.904Z,28.59
2022-08-04T12:50:10.923Z,27.92
2022-08-04T12:52:06.957Z,28.22
2022-08-04T12:52:13.314Z,27.93
2022-08-04T12:53:10.849Z,29.19
2022-08-04T12:54:10.814Z,30.84
2022-08-04T12:55:12.090Z,28.12